Time;durP1;ratioP1;P1;durP2;ratioP2;P2;SDS_P1;SDS_P2;PMS_P1;PMS_P2;Temp;Humidity;BMP_temperature;BMP_pressure;BME280_temperature;BME280_humidity;BME280_pressure;Samples;Min_cycle;Max_cycle;Signal;HPM_P1;HPM_P2
2022/02/23 00:00:40;;;;;;;4.43;0.85;;;7.00;82.40;;;;;;5090780;28;20052;-75
2022/02/23 00:03:05;;;;;;;3.00;0.90;;;7.00;82.60;;;;;;5077114;28;20059;-77
2022/02/23 00:05:31;;;;;;;2.75;0.57;;;7.10;82.20;;;;;;5058912;28;20024;-76
2022/02/23 00:07:56;;;;;;;5.15;1.10;;;7.10;81.80;;;;;;5076812;28;20104;-76
2022/02/23 00:10:22;;;;;;;4.95;0.88;;;7.10;81.90;;;;;;5076745;28;20049;-77
2022/02/23 00:12:47;;;;;;;2.53;0.73;;;7.20;81.50;;;;;;5076875;28;20384;-77
2022/02/23 00:15:14;;;;;;;2.63;0.50;;;7.10;81.80;;;;;;5076934;28;20044;-77
2022/02/23 00:17:39;;;;;;;5.97;0.98;;;7.10;82.40;;;;;;5076589;28;20532;-77
2022/02/23 00:20:06;;;;;;;3.85;1.00;;;7.00;82.50;;;;;;5076702;28;20033;-76
2022/02/23 00:22:34;;;;;;;6.25;0.80;;;7.00;82.90;;;;;;5076570;28;20056;-75
2022/02/23 00:25:00;;;;;;;1.60;0.80;;;7.10;82.40;;;;;;5075209;28;20039;-76
2022/02/23 00:27:26;;;;;;;1.45;0.50;;;7.10;82.40;;;;;;5076504;28;20354;-77
2022/02/23 00:29:56;;;;;;;3.47;1.10;;;7.10;82.20;;;;;;5076397;28;20086;-76
2022/02/23 00:32:22;;;;;;;4.32;0.80;;;7.10;81.90;;;;;;5076439;28;20017;-77
2022/02/23 00:34:48;;;;;;;2.13;0.80;;;7.10;82.00;;;;;;5076231;28;20469;-77
2022/02/23 00:37:14;;;;;;;3.58;0.70;;;7.10;82.10;;;;;;5076438;28;20028;-77
2022/02/23 00:39:40;;;;;;;2.15;0.73;;;7.10;81.80;;;;;;5076114;28;20032;-76
2022/02/23 00:42:07;;;;;;;3.05;0.75;;;7.10;81.60;;;;;;5076124;28;20024;-77
2022/02/23 00:44:33;;;;;;;3.17;0.82;;;7.20;82.10;;;;;;5076183;28;20094;-76
2022/02/23 00:46:59;;;;;;;3.67;0.95;;;7.20;81.00;;;;;;5076101;28;20039;-76
2022/02/23 00:49:26;;;;;;;1.92;0.60;;;7.20;80.70;;;;;;5076131;28;20020;-76
2022/02/23 00:51:52;;;;;;;2.25;0.63;;;7.30;80.60;;;;;;5076043;28;20060;-76
2022/02/23 00:54:18;;;;;;;1.88;0.65;;;7.30;80.50;;;;;;5076025;28;20433;-76
2022/02/23 00:56:45;;;;;;;2.38;0.57;;;7.30;80.50;;;;;;5076293;28;20412;-77
2022/02/23 00:59:11;;;;;;;2.38;0.70;;;7.30;80.40;;;;;;5075764;28;20085;-77
2022/02/23 01:01:36;;;;;;;1.15;0.30;;;7.30;80.40;;;;;;5076037;28;20029;-76
2022/02/23 01:04:02;;;;;;;2.58;0.70;;;7.30;80.40;;;;;;5075615;28;20104;-76
2022/02/23 01:06:28;;;;;;;1.40;0.57;;;7.30;80.40;;;;;;5075762;28;20029;-75
2022/02/23 01:08:53;;;;;;;3.45;0.50;;;7.30;80.90;;;;;;5075472;28;20076;-76
2022/02/23 01:11:20;;;;;;;2.28;0.50;;;7.30;81.40;;;;;;5075541;28;20017;-75
2022/02/23 01:13:50;;;;;;;2.78;1.00;;;7.30;81.90;;;;;;5075663;28;20020;-76
2022/02/23 01:16:16;;;;;;;2.47;0.70;;;7.30;82.20;;;;;;5057844;28;20033;-76
2022/02/23 01:18:42;;;;;;;5.07;0.65;;;7.20;82.80;;;;;;5075486;28;20036;-75
2022/02/23 01:21:08;;;;;;;0.88;0.50;;;7.20;82.70;;;;;;5075488;28;20032;-75
2022/02/23 01:23:33;;;;;;;3.88;0.93;;;7.20;82.40;;;;;;5075736;28;20090;-75
2022/02/23 01:25:59;;;;;;;0.88;0.40;;;7.20;82.30;;;;;;5075466;28;20469;-76
2022/02/23 01:28:25;;;;;;;5.88;0.90;;;7.20;81.90;;;;;;5075258;28;20047;-75
2022/02/23 01:30:51;;;;;;;0.95;0.60;;;7.20;82.10;;;;;;5075327;28;20031;-75
2022/02/23 01:33:17;;;;;;;1.92;0.50;;;7.20;82.00;;;;;;5075400;28;20024;-76
2022/02/23 01:35:43;;;;;;;2.35;0.50;;;7.30;81.60;;;;;;5075232;28;20031;-75
2022/02/23 01:38:09;;;;;;;1.25;0.70;;;7.30;81.50;;;;;;5075220;28;20112;-75
2022/02/23 01:40:34;;;;;;;2.58;0.60;;;7.30;81.70;;;;;;5075112;28;20457;-76
2022/02/23 01:43:00;;;;;;;1.40;0.38;;;7.30;81.50;;;;;;5074699;28;20086;-76
2022/02/23 01:45:25;;;;;;;2.70;0.82;;;7.30;81.50;;;;;;5057076;28;20023;-75
2022/02/23 01:47:51;;;;;;;2.33;0.60;;;7.40;81.40;;;;;;5074710;28;20029;-75
2022/02/23 01:50:17;;;;;;;4.70;0.60;;;7.40;81.00;;;;;;5075048;28;20024;-75
2022/02/23 01:52:43;;;;;;;1.42;0.45;;;7.50;81.00;;;;;;5074871;28;20024;-76
2022/02/23 01:55:10;;;;;;;3.25;0.60;;;7.50;81.10;;;;;;5074975;28;20028;-76
2022/02/23 01:57:36;;;;;;;0.73;0.40;;;7.50;81.10;;;;;;5075023;28;20020;-75
2022/02/23 02:00:04;;;;;;;3.53;0.70;;;7.50;81.00;;;;;;5074779;28;20025;-77
2022/02/23 02:02:30;;;;;;;1.83;0.60;;;7.50;80.90;;;;;;5074844;28;20035;-76
2022/02/23 02:04:55;;;;;;;1.80;0.50;;;7.50;81.00;;;;;;5074729;28;20024;-76
2022/02/23 02:07:21;;;;;;;0.70;0.40;;;7.50;81.10;;;;;;5074613;28;20032;-77
2022/02/23 02:09:47;;;;;;;2.10;0.60;;;7.50;81.10;;;;;;5074277;28;20401;-78
2022/02/23 02:12:12;;;;;;;0.57;0.38;;;7.50;81.40;;;;;;5075039;28;20036;-76
2022/02/23 02:14:38;;;;;;;2.50;0.70;;;7.50;81.40;;;;;;5056557;28;20399;-77
2022/02/23 02:17:04;;;;;;;1.52;0.60;;;7.60;81.20;;;;;;5074441;28;20479;-76
2022/02/23 02:19:30;;;;;;;1.52;0.38;;;7.50;81.40;;;;;;5074356;28;20492;-77
2022/02/23 02:22:01;;;;;;;0.95;0.30;;;7.40;81.70;;;;;;5074279;28;20017;-76
2022/02/23 02:24:29;;;;;;;2.13;0.57;;;7.40;82.00;;;;;;5073518;28;20537;-76
2022/02/23 02:26:56;;;;;;;1.65;0.45;;;7.40;82.40;;;;;;5074149;28;20047;-75
2022/02/23 02:29:23;;;;;;;0.38;0.22;;;7.40;82.50;;;;;;5074075;28;20071;-76
2022/02/23 02:31:48;;;;;;;0.30;0.30;;;7.30;83.30;;;;;;5074083;28;20029;-76
2022/02/23 02:34:15;;;;;;;0.95;0.45;;;7.30;83.40;;;;;;5074027;28;20020;-77
2022/02/23 02:36:42;;;;;;;1.17;0.40;;;7.30;83.20;;;;;;5073935;28;20051;-76
2022/02/23 02:39:08;;;;;;;2.58;0.70;;;7.30;83.10;;;;;;5073957;28;20024;-77
2022/02/23 02:41:34;;;;;;;1.25;0.40;;;7.30;83.20;;;;;;5073875;28;20024;-77
2022/02/23 02:44:00;;;;;;;0.63;0.30;;;7.30;82.80;;;;;;5073767;28;20489;-77
2022/02/23 02:46:25;;;;;;;0.88;0.55;;;7.30;82.80;;;;;;5073931;28;20040;-78
2022/02/23 02:48:51;;;;;;;0.90;0.43;;;7.40;82.70;;;;;;5055695;28;20126;-77
2022/02/23 02:51:17;;;;;;;1.67;0.50;;;7.40;83.10;;;;;;5073698;28;20023;-77
2022/02/23 02:53:42;;;;;;;2.47;0.43;;;7.40;83.80;;;;;;5073668;28;20035;-78
2022/02/23 02:56:08;;;;;;;1.65;0.88;;;7.40;84.10;;;;;;5073879;28;20021;-77
2022/02/23 02:58:33;;;;;;;1.33;0.40;;;7.20;85.30;;;;;;5073555;28;20031;-77
2022/02/23 03:00:59;;;;;;;3.50;0.50;;;7.20;85.90;;;;;;5073528;28;20090;-76
2022/02/23 03:03:24;;;;;;;4.25;0.65;;;7.20;86.30;;;;;;5073570;28;20024;-76
2022/02/23 03:05:50;;;;;;;2.90;0.60;;;7.20;86.40;;;;;;5055530;28;20021;-75
2022/02/23 03:08:16;;;;;;;1.50;0.40;;;7.20;86.80;;;;;;5073285;28;20082;-75
2022/02/23 03:10:43;;;;;;;2.38;0.40;;;7.10;87.20;;;;;;5073175;28;20045;-76
2022/02/23 03:13:10;;;;;;;2.60;0.70;;;7.20;87.40;;;;;;5073272;28;20051;-75
2022/02/23 03:15:36;;;;;;;1.33;0.65;;;7.10;88.00;;;;;;5073358;28;20024;-76
2022/02/23 03:18:02;;;;;;;2.08;0.50;;;7.00;89.10;;;;;;5073275;28;20420;-75
2022/02/23 03:20:28;;;;;;;1.73;0.65;;;6.90;90.10;;;;;;5073390;28;20118;-76
2022/02/23 03:22:53;;;;;;;3.67;0.68;;;6.90;90.70;;;;;;5073227;28;20587;-76
2022/02/23 03:25:19;;;;;;;3.20;1.17;;;6.80;90.80;;;;;;5073306;28;20051;-76
2022/02/23 03:27:46;;;;;;;1.40;0.60;;;6.80;90.60;;;;;;5073071;28;20039;-76
2022/02/23 03:30:12;;;;;;;1.17;0.60;;;6.90;90.50;;;;;;5073211;28;20486;-77
2022/02/23 03:32:38;;;;;;;3.95;0.90;;;6.90;90.50;;;;;;5073114;28;20025;-77
2022/02/23 03:35:04;;;;;;;0.60;0.60;;;6.90;90.20;;;;;;5072352;28;20358;-77
2022/02/23 03:37:30;;;;;;;3.85;0.70;;;6.90;90.40;;;;;;5073146;28;20541;-76
2022/02/23 03:39:56;;;;;;;2.08;0.88;;;6.80;90.20;;;;;;5072982;28;20107;-76
2022/02/23 03:42:22;;;;;;;3.28;0.82;;;6.80;90.50;;;;;;5072928;28;20472;-77
2022/02/23 03:44:47;;;;;;;2.10;0.77;;;6.80;90.60;;;;;;5072972;28;20024;-76
2022/02/23 03:47:13;;;;;;;1.55;0.82;;;6.90;90.80;;;;;;5073001;28;20484;-77
2022/02/23 03:49:39;;;;;;;1.90;0.63;;;6.80;90.60;;;;;;5072925;28;20392;-77
2022/02/23 03:52:05;;;;;;;1.33;0.70;;;6.90;90.80;;;;;;5072965;28;20535;-77
2022/02/23 03:54:30;;;;;;;1.63;0.57;;;6.90;90.70;;;;;;5072830;28;20032;-77
2022/02/23 03:56:56;;;;;;;2.20;0.80;;;6.80;90.50;;;;;;5072838;28;20094;-77
2022/02/23 03:59:22;;;;;;;2.25;0.70;;;6.80;90.50;;;;;;5072877;28;20021;-77
2022/02/23 04:01:47;;;;;;;1.52;0.47;;;6.80;90.40;;;;;;5054763;28;20032;-77
2022/02/23 04:04:14;;;;;;;1.98;0.70;;;6.90;90.30;;;;;;5072728;28;20017;-77
2022/02/23 04:06:40;;;;;;;3.88;0.98;;;6.80;90.40;;;;;;5072815;28;20050;-77
2022/02/23 04:09:08;;;;;;;4.00;2.17;;;6.80;90.60;;;;;;5072791;28;20045;-77
2022/02/23 04:11:34;;;;;;;2.50;0.70;;;6.70;91.40;;;;;;5072747;28;20063;-77
2022/02/23 04:14:00;;;;;;;4.97;0.93;;;6.40;87.90;;;;;;5072627;28;20150;-77
2022/02/23 04:16:26;;;;;;;4.30;0.77;;;6.20;87.90;;;;;;5072889;28;20055;-78
2022/02/23 04:18:52;;;;;;;5.55;0.57;;;6.10;88.30;;;;;;5072684;28;20029;-76
2022/02/23 04:21:18;;;;;;;1.83;0.50;;;6.10;87.90;;;;;;5072499;28;20533;-73
2022/02/23 04:23:45;;;;;;;3.15;0.57;;;6.00;87.10;;;;;;5072511;28;20100;-73
2022/02/23 04:26:14;;;;;;;1.92;0.65;;;5.90;86.60;;;;;;5072553;28;20024;-73
2022/02/23 04:28:40;;;;;;;4.03;0.80;;;5.80;86.90;;;;;;5054439;28;20033;-75
2022/02/23 04:31:05;;;;;;;3.65;0.90;;;5.70;87.00;;;;;;5072529;28;20036;-74
2022/02/23 04:33:31;;;;;;;2.03;0.73;;;5.80;87.90;;;;;;5072418;28;20029;-73
2022/02/23 04:35:57;;;;;;;6.43;0.95;;;5.80;87.20;;;;;;5072403;28;20107;-72
2022/02/23 04:38:23;;;;;;;6.22;1.83;;;5.80;87.20;;;;;;5072422;28;20043;-73
2022/02/23 04:40:49;;;;;;;6.78;1.13;;;5.80;86.70;;;;;;5072263;28;20028;-74
2022/02/23 04:43:15;;;;;;;7.95;1.55;;;5.80;86.80;;;;;;5072143;28;20055;-74
2022/02/23 04:45:41;;;;;;;2.72;0.80;;;5.80;86.50;;;;;;5072176;28;20108;-74
2022/02/23 04:48:07;;;;;;;5.63;1.20;;;5.70;86.20;;;;;;5075804;28;20039;-74
2022/02/23 04:50:33;;;;;;;6.13;1.00;;;5.70;86.20;;;;;;5076076;28;20025;-73
2022/02/23 04:52:59;;;;;;;3.60;0.80;;;5.60;86.20;;;;;;5075859;28;20024;-76
2022/02/23 04:55:25;;;;;;;3.72;1.00;;;5.50;86.70;;;;;;5076020;28;20381;-78
2022/02/23 04:57:51;;;;;;;4.05;0.95;;;5.40;87.00;;;;;;5057871;28;20029;-76
2022/02/23 05:00:16;;;;;;;7.30;1.10;;;5.40;86.60;;;;;;5074574;28;20021;-76
2022/02/23 05:02:42;;;;;;;6.85;1.27;;;5.30;87.10;;;;;;5075807;28;20060;-76
2022/02/23 05:05:08;;;;;;;2.63;1.08;;;5.30;87.20;;;;;;5075737;28;20017;-77
2022/02/23 05:07:34;;;;;;;4.60;1.00;;;5.40;87.00;;;;;;5075657;28;20086;-76
2022/02/23 05:10:01;;;;;;;5.25;1.17;;;5.40;86.70;;;;;;5057509;28;20550;-76
2022/02/23 05:12:26;;;;;;;2.78;0.90;;;5.50;86.50;;;;;;5075734;28;20551;-77
2022/02/23 05:14:52;;;;;;;5.25;0.95;;;5.50;86.00;;;;;;5075607;28;20032;-77
2022/02/23 05:17:18;;;;;;;3.90;1.35;;;5.50;85.40;;;;;;5075572;28;20020;-76
2022/02/23 05:19:44;;;;;;;3.22;1.55;;;5.60;85.20;;;;;;5075495;28;20045;-75
2022/02/23 05:22:10;;;;;;;4.03;1.20;;;5.60;85.20;;;;;;5075463;28;20020;-76
2022/02/23 05:24:36;;;;;;;5.05;1.48;;;5.60;85.40;;;;;;5057448;28;20430;-76
2022/02/23 05:27:03;;;;;;;3.10;1.48;;;5.50;85.80;;;;;;5075501;28;20449;-77
2022/02/23 05:29:31;;;;;;;9.43;2.28;;;5.60;86.20;;;;;;5075170;28;20082;-76
2022/02/23 05:31:56;;;;;;;4.40;1.10;;;5.60;86.50;;;;;;5075233;28;20499;-73
2022/02/23 05:34:22;;;;;;;3.83;0.70;;;5.50;86.90;;;;;;5075047;28;20068;-76
2022/02/23 05:36:48;;;;;;;1.20;0.50;;;5.50;86.70;;;;;;5075280;28;20028;-77
2022/02/23 05:39:13;;;;;;;2.25;0.68;;;5.50;86.50;;;;;;5074944;28;20021;-77
2022/02/23 05:41:39;;;;;;;3.45;0.88;;;5.40;86.20;;;;;;5074936;28;20043;-76
2022/02/23 05:44:05;;;;;;;2.47;0.70;;;5.40;85.50;;;;;;5074814;28;20126;-77
2022/02/23 05:46:30;;;;;;;1.48;0.70;;;5.50;85.70;;;;;;5056801;28;20031;-76
2022/02/23 05:48:56;;;;;;;4.63;0.73;;;5.40;85.20;;;;;;5056505;28;20035;-77
2022/02/23 05:51:25;;;;;;;3.33;0.80;;;5.40;85.20;;;;;;5074606;28;20358;-75
2022/02/23 05:53:51;;;;;;;6.80;1.35;;;5.40;85.20;;;;;;5074603;28;20380;-74
2022/02/23 05:56:17;;;;;;;4.18;1.15;;;5.30;85.40;;;;;;5074539;28;20016;-77
2022/02/23 05:58:42;;;;;;;3.63;0.80;;;5.30;85.40;;;;;;5073566;28;20028;-75
2022/02/23 06:01:11;;;;;;;5.70;1.00;;;5.30;85.30;;;;;;5056732;28;20123;-74
2022/02/23 06:03:37;;;;;;;3.00;0.82;;;5.20;85.70;;;;;;5056587;28;20119;-74
2022/02/23 06:06:03;;;;;;;3.15;1.23;;;5.20;86.00;;;;;;5074417;28;20056;-74
2022/02/23 06:08:28;;;;;;;2.75;1.00;;;5.20;85.90;;;;;;5074196;28;20111;-75
2022/02/23 06:10:54;;;;;;;3.58;0.70;;;5.20;86.20;;;;;;5074512;28;20539;-76
2022/02/23 06:13:20;;;;;;;2.58;1.02;;;5.20;86.60;;;;;;5074943;28;20031;-78
2022/02/23 06:15:45;;;;;;;3.08;0.80;;;5.00;87.10;;;;;;5056665;28;20074;-75
2022/02/23 06:18:11;;;;;;;4.55;1.05;;;5.00;87.50;;;;;;5074349;28;20029;-77
2022/02/23 06:20:37;;;;;;;3.20;0.75;;;5.00;87.70;;;;;;5073719;28;20025;-79
2022/02/23 06:23:03;;;;;;;8.05;1.50;;;5.10;88.00;;;;;;5073714;28;20021;-77
2022/02/23 06:25:29;;;;;;;5.32;1.95;;;5.00;87.80;;;;;;5073663;28;20021;-77
2022/02/23 06:27:54;;;;;;;3.40;1.80;;;5.00;88.20;;;;;;5073184;28;20021;-75
2022/02/23 06:30:20;;;;;;;3.75;1.60;;;5.10;88.30;;;;;;5073310;28;20032;-78
2022/02/23 06:32:45;;;;;;;3.33;1.30;;;5.20;88.20;;;;;;5073556;28;20031;-76
2022/02/23 06:35:11;;;;;;;3.00;1.20;;;5.20;87.70;;;;;;5073687;28;20024;-75
2022/02/23 06:37:38;;;;;;;2.85;1.20;;;5.30;87.20;;;;;;5073796;28;20021;-75
2022/02/23 06:40:04;;;;;;;4.97;1.13;;;5.30;86.80;;;;;;5073786;28;20078;-78
2022/02/23 06:42:30;;;;;;;4.10;1.30;;;5.40;86.80;;;;;;5056164;28;20032;-78
2022/02/23 06:44:56;;;;;;;3.08;0.88;;;5.40;86.60;;;;;;5055889;28;20082;-73
2022/02/23 06:47:22;;;;;;;4.10;1.23;;;5.40;86.60;;;;;;5055967;28;20407;-73
2022/02/23 06:49:47;;;;;;;6.22;1.70;;;5.50;86.30;;;;;;5055722;28;20074;-74
2022/02/23 06:52:14;;;;;;;8.70;2.08;;;5.50;86.10;;;;;;5055705;28;20028;-71
2022/02/23 06:54:40;;;;;;;5.07;1.92;;;5.50;86.10;;;;;;5055858;28;20419;-73
2022/02/23 06:57:07;;;;;;;11.88;2.40;;;5.40;86.20;;;;;;5055623;28;20024;-77
2022/02/23 06:59:32;;;;;;;8.13;2.63;;;5.30;86.60;;;;;;5055499;28;20063;-74
2022/02/23 07:01:58;;;;;;;9.00;2.83;;;5.30;86.90;;;;;;5055829;28;20101;-75
2022/02/23 07:04:24;;;;;;;14.10;4.28;;;5.40;87.00;;;;;;5055736;28;20024;-76
2022/02/23 07:06:49;;;;;;;12.93;5.45;;;5.50;87.00;;;;;;5055385;28;20480;-73
2022/02/23 07:09:15;;;;;;;14.38;4.70;;;5.60;86.90;;;;;;5055150;28;20443;-73
2022/02/23 07:11:40;;;;;;;6.38;2.60;;;5.80;86.80;;;;;;5073001;28;20044;-74
2022/02/23 07:14:08;;;;;;;4.97;1.63;;;5.80;86.70;;;;;;5055175;28;20025;-77
2022/02/23 07:16:37;;;;;;;18.52;7.43;;;5.80;86.60;;;;;;5055518;28;20029;-73
2022/02/23 07:19:03;;;;;;;20.00;8.90;;;5.80;86.00;;;;;;5072920;28;20098;-77
2022/02/23 07:21:28;;;;;;;20.92;8.25;;;5.80;86.00;;;;;;5055029;28;20090;-77
2022/02/23 07:23:55;;;;;;;18.80;8.23;;;5.80;86.20;;;;;;5054573;28;20481;-76
2022/02/23 07:26:21;;;;;;;7.95;3.67;;;5.80;86.10;;;;;;5054889;28;20139;-77
2022/02/23 07:28:47;;;;;;;8.05;3.55;;;5.70;86.00;;;;;;5054754;28;20078;-74
2022/02/23 07:31:15;;;;;;;4.32;2.22;;;5.80;85.90;;;;;;5072705;28;20024;-74
2022/02/23 07:33:41;;;;;;;7.00;1.67;;;5.80;86.30;;;;;;5073125;28;20056;-76
2022/02/23 07:36:07;;;;;;;9.13;2.88;;;5.90;85.90;;;;;;5073359;28;20031;-76
2022/02/23 07:38:34;;;;;;;5.78;2.28;;;6.00;85.30;;;;;;5054867;28;20358;-74
2022/02/23 07:41:00;;;;;;;12.18;4.68;;;6.10;85.10;;;;;;5072885;28;20025;-75
2022/02/23 07:43:26;;;;;;;18.92;6.75;;;6.30;84.20;;;;;;5054813;28;20069;-74
2022/02/23 07:45:53;;;;;;;20.25;7.85;;;6.30;83.80;;;;;;5072533;28;20103;-74
2022/02/23 07:48:20;;;;;;;24.00;8.30;;;6.30;83.40;;;;;;5054280;28;20490;-76
2022/02/23 07:50:46;;;;;;;21.15;7.35;;;6.70;87.20;;;;;;5055000;28;20377;-75
2022/02/23 07:53:12;;;;;;;14.63;4.88;;;6.90;83.80;;;;;;5072777;28;20036;-75
2022/02/23 07:55:38;;;;;;;6.82;2.40;;;7.20;81.50;;;;;;5072927;28;20028;-76
2022/02/23 07:58:05;;;;;;;5.78;2.67;;;7.50;79.90;;;;;;5072641;28;20155;-74
2022/02/23 08:00:30;;;;;;;6.35;2.10;;;7.60;78.90;;;;;;5072539;28;20024;-73
2022/02/23 08:02:56;;;;;;;8.57;2.53;;;7.70;79.10;;;;;;5072592;28;20024;-75
2022/02/23 08:05:24;;;;;;;6.82;2.42;;;7.90;78.80;;;;;;5071408;28;20024;-74
2022/02/23 08:07:50;;;;;;;7.38;2.13;;;8.40;77.40;;;;;;5072202;28;20107;-75
2022/02/23 08:10:15;;;;;;;6.38;1.75;;;8.80;75.50;;;;;;5071851;28;20057;-74
2022/02/23 08:12:41;;;;;;;4.97;1.98;;;9.00;74.60;;;;;;5071361;28;20051;-75
2022/02/23 08:20:40;;;;;;;6.00;2.00;;;9.60;72.10;;;;;;5072471;28;20435;-74
2022/02/23 08:23:06;;;;;;;8.00;1.85;;;9.70;71.40;;;;;;5058568;28;20028;-75
2022/02/23 08:25:31;;;;;;;3.72;1.98;;;9.60;72.00;;;;;;5058418;28;20025;-75
2022/02/23 08:27:58;;;;;;;5.10;1.92;;;9.60;71.60;;;;;;5076196;28;20028;-76
2022/02/23 08:30:24;;;;;;;6.75;1.75;;;9.70;71.60;;;;;;5076574;28;20017;-75
2022/02/23 08:32:49;;;;;;;5.60;1.48;;;9.80;70.90;;;;;;5076219;28;20025;-76
2022/02/23 08:35:18;;;;;;;2.60;1.63;;;9.90;70.90;;;;;;5058293;28;20028;-74
2022/02/23 08:37:44;;;;;;;3.50;1.40;;;10.10;70.70;;;;;;5057914;28;20027;-74
2022/02/23 08:40:09;;;;;;;4.85;1.90;;;10.20;70.40;;;;;;5075929;28;20033;-74
2022/02/23 08:42:35;;;;;;;6.88;2.35;;;10.20;70.00;;;;;;5075745;28;20062;-75
2022/02/23 08:45:01;;;;;;;9.95;4.20;;;10.30;69.80;;;;;;5074806;28;20107;-73
2022/02/23 08:47:28;;;;;;;10.18;4.88;;;10.60;69.30;;;;;;5074670;28;20021;-74
2022/02/23 08:49:54;;;;;;;8.82;3.40;;;10.80;68.80;;;;;;5075875;28;20040;-75
2022/02/23 08:52:20;;;;;;;7.47;3.63;;;11.10;67.80;;;;;;5057740;28;20115;-74
2022/02/23 08:54:45;;;;;;;6.47;2.95;;;11.50;66.30;;;;;;5075758;28;20111;-76
2022/02/23 08:57:11;;;;;;;7.63;3.63;;;11.70;65.90;;;;;;5075835;28;20031;-77
2022/02/23 08:59:37;;;;;;;5.55;2.60;;;11.90;65.30;;;;;;5076034;28;20035;-78
2022/02/23 09:02:04;;;;;;;4.60;2.13;;;11.80;64.60;;;;;;5041788;28;20032;-77
2022/02/23 09:04:29;;;;;;;3.40;1.40;;;11.70;64.50;;;;;;5058410;28;20024;-77
2022/02/23 09:06:55;;;;;;;3.45;1.10;;;11.50;63.50;;;;;;5058497;28;20473;-76
2022/02/23 09:09:22;;;;;;;3.90;1.73;;;11.40;64.10;;;;;;5074930;28;20480;-77
2022/02/23 09:11:47;;;;;;;4.30;1.50;;;11.30;64.40;;;;;;5075992;28;20025;-79
2022/02/23 09:14:15;;;;;;;5.50;2.00;;;11.30;64.90;;;;;;5058680;28;20484;-78
2022/02/23 09:16:41;;;;;;;3.38;1.10;;;11.40;65.70;;;;;;5058320;28;20031;-78
2022/02/23 09:19:07;;;;;;;3.05;1.40;;;11.50;64.40;;;;;;5058208;28;20059;-76
2022/02/23 09:21:34;;;;;;;5.00;1.35;;;11.60;62.90;;;;;;5076103;28;20473;-75
2022/02/23 09:24:00;;;;;;;5.18;1.58;;;11.50;63.00;;;;;;5076109;28;20511;-78
2022/02/23 09:26:28;;;;;;;3.85;1.50;;;11.30;62.60;;;;;;5058056;28;20029;-77
2022/02/23 09:28:54;;;;;;;3.63;1.52;;;11.10;62.70;;;;;;5076075;28;20040;-77
2022/02/23 09:31:19;;;;;;;4.28;1.38;;;11.00;63.20;;;;;;5075971;28;20099;-78
2022/02/23 09:33:45;;;;;;;2.55;1.33;;;10.80;63.80;;;;;;5074767;28;20051;-77
2022/02/23 09:36:11;;;;;;;4.80;1.58;;;10.80;63.60;;;;;;5075303;28;20024;-77
2022/02/23 09:38:37;;;;;;;5.72;1.25;;;10.90;63.00;;;;;;5057381;28;20047;-76
2022/02/23 09:41:04;;;;;;;4.38;1.10;;;11.20;63.80;;;;;;5057178;28;20037;-77
2022/02/23 09:43:31;;;;;;;2.70;0.98;;;11.50;63.20;;;;;;5085488;28;20035;-77
2022/02/23 09:45:58;;;;;;;2.00;0.85;;;11.80;60.10;;;;;;5077336;28;20111;-74
2022/02/23 09:48:28;;;;;;;3.03;0.95;;;12.00;59.40;;;;;;5076957;28;20028;-77
2022/02/23 09:50:55;;;;;;;1.77;0.80;;;12.10;59.30;;;;;;5076609;28;20553;-76
2022/02/23 09:53:21;;;;;;;4.63;0.93;;;12.40;58.70;;;;;;5076930;28;20037;-75
2022/02/23 09:55:48;;;;;;;2.35;0.90;;;12.40;57.00;;;;;;5076874;28;20589;-77
2022/02/23 09:58:14;;;;;;;1.45;0.50;;;12.40;57.70;;;;;;5076607;28;20099;-76
2022/02/23 10:00:40;;;;;;;2.28;0.90;;;12.60;57.00;;;;;;5077025;28;20384;-75
2022/02/23 10:03:07;;;;;;;2.05;0.80;;;12.90;57.60;;;;;;5076468;28;20028;-77
2022/02/23 10:05:43;;;;;;;1.92;0.85;;;13.00;57.40;;;;;;5076375;28;20104;-75
2022/02/23 10:08:10;;;;;;;1.05;0.47;;;13.20;57.50;;;;;;5076032;28;20031;-77
2022/02/23 10:10:38;;;;;;;2.42;1.00;;;13.60;57.00;;;;;;5076020;28;20141;-74
2022/02/23 10:13:05;;;;;;;2.95;1.08;;;13.90;53.90;;;;;;5076032;28;20086;-75
2022/02/23 10:15:37;;;;;;;4.22;0.80;;;14.20;51.80;;;;;;5094359;28;20048;-73
2022/02/23 10:18:11;;;;;;;1.10;0.60;;;14.40;49.30;;;;;;5059906;28;20024;-73
2022/02/23 10:20:39;;;;;;;1.80;0.73;;;14.30;50.50;;;;;;5076458;28;20085;-77
2022/02/23 10:23:15;;;;;;;3.75;0.70;;;14.30;49.30;;;;;;5075913;28;20077;-77
2022/02/23 10:25:43;;;;;;;2.25;0.82;;;14.20;49.80;;;;;;5075602;28;20038;-75
2022/02/23 10:28:12;;;;;;;3.00;1.45;;;14.10;49.40;;;;;;5092605;28;20476;-76
2022/02/23 10:31:07;;;;;;;3.42;1.85;;;13.60;52.10;;;;;;5075999;28;20032;-77
2022/02/23 10:33:38;;;;;;;5.90;1.73;;;13.10;55.00;;;;;;5076113;28;20111;-77
2022/02/23 10:36:14;;;;;;;6.32;1.67;;;12.30;57.20;;;;;;5076050;28;20020;-78
2022/02/23 10:38:46;;;;;;;1.70;0.90;;;12.20;56.90;;;;;;5075929;28;20039;-77
2022/02/23 10:41:27;;;;;;;1.90;0.90;;;12.30;56.70;;;;;;5075800;28;20077;-74
2022/02/23 10:43:53;;;;;;;2.92;1.35;;;12.40;56.10;;;;;;5075230;28;20061;-74
2022/02/23 10:46:21;;;;;;;2.33;1.00;;;12.40;55.60;;;;;;5075887;28;20421;-75
2022/02/23 10:49:02;;;;;;;2.88;1.00;;;12.30;57.20;;;;;;5072425;28;20143;-79
2022/02/23 10:51:29;;;;;;;4.82;1.58;;;12.10;57.80;;;;;;5073605;28;20024;-77
2022/02/23 10:54:06;;;;;;;3.13;1.20;;;12.00;57.20;;;;;;5073401;28;20027;-78
2022/02/23 10:56:35;;;;;;;4.20;1.35;;;11.90;57.10;;;;;;5055156;28;20024;-79
2022/02/23 10:59:07;;;;;;;4.07;1.10;;;11.80;57.20;;;;;;5055163;28;20063;-78
2022/02/23 11:01:35;;;;;;;2.20;0.88;;;11.70;57.50;;;;;;5054731;28;20059;-77
2022/02/23 11:04:01;;;;;;;2.00;0.70;;;11.80;57.20;;;;;;5072823;28;20024;-79
2022/02/23 11:06:27;;;;;;;4.15;1.40;;;11.80;57.00;;;;;;5054985;28;20058;-78
2022/02/23 11:08:54;;;;;;;3.92;1.58;;;11.90;57.50;;;;;;5072634;28;20040;-79
2022/02/23 11:11:22;;;;;;;4.43;1.30;;;12.10;57.90;;;;;;5055124;28;20034;-78
2022/02/23 11:13:49;;;;;;;7.65;1.30;;;12.40;58.00;;;;;;5054691;28;20078;-74
2022/02/23 11:16:16;;;;;;;3.38;1.40;;;12.80;57.20;;;;;;5072840;28;20432;-81
2022/02/23 11:18:45;;;;;;;2.58;1.50;;;13.30;55.00;;;;;;5071171;28;20047;-80
2022/02/23 11:21:13;;;;;;;4.50;1.98;;;13.80;52.20;;;;;;5071159;28;20103;-75
2022/02/23 11:23:44;;;;;;;5.00;1.52;;;14.00;51.50;;;;;;5054438;28;20035;-78
2022/02/23 11:26:15;;;;;;;4.60;1.13;;;13.90;51.40;;;;;;5055262;28;20498;-83
2022/02/23 11:28:56;;;;;;;2.35;0.80;;;13.80;49.20;;;;;;5055188;28;20136;-86
2022/02/23 11:31:23;;;;;;;4.07;1.15;;;13.40;49.50;;;;;;5058910;28;20099;-90
2022/02/23 11:34:09;;;;;;;4.97;1.20;;;13.50;49.50;;;;;;5057000;28;20096;-87
2022/02/23 11:36:38;;;;;;;3.35;1.05;;;13.80;48.80;;;;;;5060074;28;20021;-92
2022/02/23 11:39:26;;;;;;;3.42;1.33;;;13.70;49.70;;;;;;5059765;28;20028;-89
2022/02/23 11:41:54;;;;;;;2.85;1.48;;;13.60;49.40;;;;;;5056232;28;20016;-84
2022/02/23 11:44:38;;;;;;;1.98;0.80;;;13.30;50.10;;;;;;5024571;28;20040;-83
2022/02/23 11:47:21;;;;;;;3.42;0.80;;;12.90;50.70;;;;;;5056799;28;20021;-84
2022/02/23 11:49:53;;;;;;;5.43;1.45;;;12.90;51.20;;;;;;5057490;28;20103;-83
2022/02/23 11:52:22;;;;;;;3.47;1.08;;;12.80;51.80;;;;;;5075703;28;20048;-82
2022/02/23 11:54:58;;;;;;;2.38;0.95;;;12.80;52.10;;;;;;5055509;28;20119;-82
2022/02/23 11:57:50;;;;;;;2.40;1.30;;;12.90;52.10;;;;;;5072383;28;20020;-83
2022/02/23 12:00:31;;;;;;;2.22;0.80;;;12.90;51.60;;;;;;5067213;28;20056;-80
2022/02/23 12:03:04;;;;;;;3.80;1.05;;;12.80;50.60;;;;;;5072176;28;20024;-80
2022/02/23 12:05:32;;;;;;;2.78;0.85;;;12.70;51.20;;;;;;5055888;28;20024;-82
2022/02/23 12:08:00;;;;;;;3.25;0.90;;;12.60;52.20;;;;;;5071916;28;20028;-79
2022/02/23 12:10:28;;;;;;;4.72;1.02;;;12.60;52.80;;;;;;5055130;28;20049;-79
2022/02/23 12:12:56;;;;;;;1.27;0.75;;;12.70;53.60;;;;;;5054108;28;20052;-80
2022/02/23 12:15:39;;;;;;;1.88;0.80;;;12.80;53.20;;;;;;5054529;28;20056;-79
2022/02/23 12:18:16;;;;;;;2.17;0.95;;;12.90;52.90;;;;;;5038148;28;20024;-83
2022/02/23 12:20:47;;;;;;;3.90;1.00;;;12.90;52.80;;;;;;5072967;28;20063;-79
2022/02/23 12:23:18;;;;;;;2.33;0.80;;;12.80;52.30;;;;;;5071132;28;20024;-78
2022/02/23 12:26:10;;;;;;;3.25;1.20;;;12.80;52.70;;;;;;5070901;28;20057;-79
2022/02/23 12:28:39;;;;;;;2.45;1.15;;;12.80;53.30;;;;;;5071030;28;20083;-77
2022/02/23 12:31:19;;;;;;;3.83;1.30;;;12.90;53.00;;;;;;5054352;28;20141;-77
2022/02/23 12:33:48;;;;;;;2.70;0.90;;;13.00;52.80;;;;;;5054566;28;20024;-84
2022/02/23 12:36:38;;;;;;;2.15;1.02;;;13.10;53.00;;;;;;5054787;28;20023;-81
2022/02/23 12:39:08;;;;;;;3.10;0.95;;;13.50;53.00;;;;;;5041245;28;20031;-79
2022/02/23 12:41:35;;;;;;;1.65;0.77;;;13.70;52.40;;;;;;5055097;28;20083;-85
2022/02/23 12:44:11;;;;;;;1.83;0.73;;;13.80;51.10;;;;;;5072692;28;20021;-84
2022/02/23 12:46:41;;;;;;;1.42;0.73;;;13.80;50.20;;;;;;5070302;28;20074;-79
2022/02/23 12:49:09;;;;;;;2.15;0.68;;;14.00;50.00;;;;;;5072106;28;20041;-79
2022/02/23 12:51:36;;;;;;;1.70;0.52;;;14.10;49.50;;;;;;5038228;28;20032;-79
2022/02/23 12:54:09;;;;;;;5.53;0.80;;;14.40;48.60;;;;;;5040764;28;20029;-77
2022/02/23 12:56:59;;;;;;;3.60;0.70;;;14.60;46.90;;;;;;5056045;28;20102;-77
2022/02/23 12:59:29;;;;;;;2.28;0.68;;;14.60;45.80;;;;;;5053568;28;20101;-81